LBSF/SOF METAR and TAF weather

Enter ICAO airport designator
Station Type Date Time Source
LBSF METAR 2021/01/22 05:00 UTC NOAA

LBSF 220500Z 00000KT 2700 BR NSC M03/M04 Q1020 NOSIG


Station Type Date Time Source
LBSF Decoded METAR 2021/01/22 05:00 UTC NOAA

Sofia Observ. , Bulgaria (LBSF) 42-39N 023-23E 595M
Jan 22, 2021 - 12:00 AM EST / 2021.01.22 0500 UTC
Wind: Calm:0
Visibility: 1 mile(s):0
Weather: mist
Temperature: 26 F (-3 C)
Dew Point: 24 F (-4 C)
Relative Humidity: 92%
Pressure (altimeter): 30.12 in. Hg (1020 hPa)
ob: LBSF 220500Z 00000KT 2700 BR NSC M03/M04 Q1020 NOSIG
cycle: 5

Station Type Date Time Source
LBSF TAF 2021/01/22 06:18 UTC NOAA

TAF LBSF 220500Z 2206/2306 VRB04KT 3000 BR SCT080 PROB30
TEMPO 2206/2207 1500 BR
BECMG 2208/2210 07010KT 9999

Example: see airport list